Terminal Aerodrome Forecast
Issued by NWS

Home | Current Version | Previous Version | Text Only | Print | Product List | Glossary On
Versions: 1 2 3 4 5 6 7 8 9 10 11 12 13 14 15 16 17 18 19
000
FTUS41 KGYX 011120
TAFRKD
TAF
KRKD 011120Z 0112/0212 00000KT P6SM SKC
     FM020300 30005KT P6SM SCT100 OVC250
     FM020500 30005KT P6SM OVC080
     FM021000 36005KT 3SM -SN OVC015
      AMD LTD TO CLD VIS AND WIND=

USA.gov is the U.S. government's official web portal to all federal, state and local government web resources and services.